^^

Nearby METAR Reports

METAR (Meteorological Aerodrome Report) are Airport generated local weather condition reports for use, predominantly by pilots, these reports are also used as part of compliment of data sets required for Chatteris Weathers prediction software - WxSim.

EGUN - Mildenhall Raf, United Kingdom
Distance from station: ESE 19mi, 31km
Updated: 24/10/2018 02:56
Clear
Clear
 Wind from W
Wind: W 12 mph , 19 km/h
Temperature: 11°C
Dew Point: 11°C
Humidity: 100%
Barometer: 1027.1 hPa
Clouds: Clear
Visibility: 6 miles , 10 km
2018/10/24 01:56 EGUN 240156Z AUTO 27010KT 9999 CLR 11/11 A3033 RMK AO2 SLP274 T01110111 $
EGSC - Cambridge, United Kingdom
Distance from station: SSE 20mi, 32km
Updated: 23/10/2018 17:50
NOT Current
Clear
Clear
 Wind from WNW
Wind: WNW 12 mph , 19 km/h
Temperature: 14°C
Dew Point: 8°C
Humidity: 67%
Barometer: 1028 hPa
Summary: Clear
Visibility: greater than 7 miles , 10 km
2018/10/23 16:50 EGSC 231650Z 29010KT CAVOK 14/08 Q1028
 
EGUL - Lakenheath Raf, United Kingdom
Distance from station: E 22mi, 36km
Updated: 24/10/2018 02:56
Partly cloudy
Partly cloudy
 Wind from WSW
Wind: WSW 6 mph , 9 km/h
Temperature: 12°C
Dew Point: 10°C
Humidity: 88%
Barometer: 1027.1 hPa
Clouds: Partly cloudy
Visibility: 6 miles , 10 km
Cloud details: Partly cloudy 518 m
2018/10/24 01:56 EGUL 240156Z AUTO 24005KT 9999 SCT017 12/10 A3033 RMK AO2 SLP274 T01150096 $
EGXT - Wittering Raf, United Kingdom
Distance from station: WNW 24mi, 38km
Updated: 24/10/2018 02:50
Overcast
Overcast
 Wind from W
Wind: W 24 mph , 39 km/h
Temperature: 12°C
Dew Point: 11°C
Humidity: 94%
Barometer: 1027 hPa
Clouds: Overcast
Visibility: 6 miles , 10 km
Cloud details: Overcast 366 m
2018/10/24 01:50 EGXT 240150Z AUTO 28021KT 9999 OVC012/// 12/11 Q1027
 
EGYH - Holbeach (aut), United Kingdom
Distance from station: N 27mi, 44km
Updated: 23/10/2018 20:50
NOT Current
Few Clouds
Few Clouds
 Wind from W
Wind: W 20 mph , 31 km/h
Temperature: 12°C
Dew Point: 10°C
Humidity: 88%
Barometer: 1026 hPa
Clouds: Few Clouds
Visibility: 6 miles , 10 km
Cloud details: Few Clouds 610 m
2018/10/23 19:50 EGYH 231950Z 28017KT 9999 FEW020 12/10 Q1026 BLU
EGSS - Stansted Airport, United Kingdom
Distance from station: SE 11mi, 18km
Updated: 24/10/2018 03:20
Mostly cloudy
Mostly cloudy
 Wind from WNW
Wind: WNW 8 mph , 13 km/h
Temperature: 12°C
Dew Point: 10°C
Humidity: 88%
Barometer: 1028 hPa
Clouds: Mostly cloudy
Visibility: 6 miles , 10 km
Cloud details: Mostly cloudy 305 m
2018/10/24 02:20 EGSS 240220Z AUTO 29007KT 9999 BKN010 12/10 Q1028
 
EGGW - Luton Airport, United Kingdom
Distance from station: WSW 19mi, 31km
Updated: 24/10/2018 03:20
Partly cloudy
Partly cloudy
 Wind from WNW
Wind: WNW 23 mph , 37 km/h
Temperature: 11°C
Dew Point: 10°C
Humidity: 94%
Barometer: 1028 hPa
Clouds: Partly cloudy
Visibility: 6 miles , 10 km
Cloud details: Partly cloudy 274 m
2018/10/24 02:20 EGGW 240220Z AUTO 30020KT 9999 SCT009 11/10 Q1028
EGLL - London/Heathrow, United Kingdom
Distance from station: SSW 41mi, 66km
Updated: 24/10/2018 03:20
Clear
Clear
 Wind from varies
Wind: varies 1 mph , 2 km/h
Temperature: 10°C
Dew Point: 9°C
Humidity: 94%
Barometer: 1029 hPa
Clouds: Clear
Visibility: 6 miles , 10 km
2018/10/24 02:20 EGLL 240220Z AUTO VRB01KT 9999 NCD 10/09 Q1029 NOSIG
 
EGKK - London/Gatwick A, United Kingdom
Distance from station: S 60mi, 97km
Updated: 24/10/2018 03:20
Clear
Clear
 Wind from NW
Wind: NW 7 mph , 11 km/h
Temperature: 12°C
Dew Point: 10°C
Humidity: 88%
Barometer: 1029 hPa
Summary: Clear
Visibility: greater than 7 miles , 10 km
2018/10/24 02:20 EGKK 240220Z 31006KT CAVOK 12/10 Q1029
EGUY - Wyton Raf, United Kingdom
Distance from station: SW 11mi, 18km
Updated: 04/10/2015 09:50
NOT Current
Haze, Clear
Haze, Clear
 Wind from SSE
Wind: SSE 2 mph , 4 km/h
Temperature: 11°C
Dew Point: 7°C
Humidity: 77%
Barometer: 1014 hPa
Summary: Haze
Clouds: Clear
Visibility: 4 miles , 6 km
2015/10/04 08:50 EGUY 040850Z 15002KT 6000 HZ SKC 11/07 Q1014 WHT

Met Office METAR data link, decoding METAR data code.